createdAt,value
2023-05-22T00:01:49.457Z,8.00
2023-05-22T00:04:22.151Z,7.83
2023-05-22T00:06:51.778Z,7.97
2023-05-22T00:09:21.090Z,9.03
2023-05-22T00:11:51.007Z,8.77
2023-05-22T00:14:22.454Z,9.67
2023-05-22T00:16:51.194Z,9.20
2023-05-22T00:19:23.219Z,9.00
2023-05-22T00:21:52.386Z,10.00
2023-05-22T00:24:22.743Z,9.20
2023-05-22T00:26:51.703Z,9.50
2023-05-22T00:29:20.909Z,9.10
2023-05-22T00:31:52.484Z,9.30
2023-05-22T00:34:22.990Z,10.00
2023-05-22T00:36:51.851Z,9.00
2023-05-22T00:39:20.849Z,9.63
2023-05-22T00:41:51.881Z,8.73
2023-05-22T00:44:24.760Z,9.13
2023-05-22T00:46:54.049Z,9.20
2023-05-22T00:49:24.493Z,9.40
2023-05-22T00:51:53.346Z,8.70
2023-05-22T00:54:22.620Z,9.03
2023-05-22T00:56:52.545Z,8.63
2023-05-22T00:59:21.496Z,8.70
2023-05-22T01:01:50.903Z,8.73
2023-05-22T01:04:25.401Z,9.10
2023-05-22T01:06:55.423Z,9.30
2023-05-22T01:09:24.353Z,9.17
2023-05-22T01:12:00.259Z,9.00
2023-05-22T01:14:42.402Z,10.03
2023-05-22T01:17:23.923Z,9.20
2023-05-22T01:20:14.683Z,8.97
2023-05-22T01:23:15.432Z,9.63
2023-05-22T01:26:20.808Z,9.73
2023-05-22T01:29:06.702Z,9.20
2023-05-22T01:31:41.155Z,10.20
2023-05-22T01:34:13.562Z,9.87
2023-05-22T01:36:46.273Z,10.17
2023-05-22T01:39:15.938Z,9.40
2023-05-22T01:41:44.781Z,11.13
2023-05-22T01:44:13.545Z,9.93
2023-05-22T01:46:43.911Z,10.10
2023-05-22T01:49:12.654Z,11.10
2023-05-22T01:51:53.590Z,9.13
2023-05-22T01:54:29.277Z,10.23
2023-05-22T01:57:03.224Z,11.10
2023-05-22T01:59:38.568Z,9.77
2023-05-22T02:02:12.299Z,10.27
2023-05-22T02:04:46.574Z,10.17
2023-05-22T02:07:19.088Z,10.00
2023-05-22T02:09:48.996Z,10.70
2023-05-22T02:12:18.118Z,10.20
2023-05-22T02:14:48.156Z,10.47
2023-05-22T02:17:19.334Z,11.13
2023-05-22T02:19:47.926Z,9.13
2023-05-22T02:22:17.081Z,10.40
2023-05-22T02:24:49.854Z,10.20
2023-05-22T02:27:18.918Z,10.30
2023-05-22T02:29:47.275Z,10.57
2023-05-22T02:32:18.018Z,10.10
2023-05-22T02:34:48.660Z,10.60
2023-05-22T02:37:18.324Z,10.30
2023-05-22T02:39:47.549Z,9.77
2023-05-22T02:42:16.597Z,10.80
2023-05-22T02:44:48.127Z,10.07
2023-05-22T02:47:19.768Z,10.43
2023-05-22T02:49:48.696Z,9.67
2023-05-22T02:52:19.816Z,11.20
2023-05-22T02:54:51.343Z,9.57
2023-05-22T02:57:22.403Z,11.23
2023-05-22T02:59:53.521Z,9.43
2023-05-22T03:02:28.817Z,10.90
2023-05-22T03:04:59.261Z,10.07
2023-05-22T03:07:31.896Z,10.40
2023-05-22T03:10:00.582Z,12.30
2023-05-22T03:12:29.158Z,10.90
2023-05-22T03:14:57.894Z,10.60
2023-05-22T03:17:44.388Z,9.77
2023-05-22T03:20:17.370Z,9.83
2023-05-22T03:22:46.913Z,11.03
2023-05-22T03:25:16.857Z,10.27
2023-05-22T03:27:46.594Z,10.13
2023-05-22T03:30:16.720Z,10.50
2023-05-22T03:32:56.496Z,10.37
2023-05-22T03:35:26.634Z,10.27
2023-05-22T03:37:56.452Z,10.30
2023-05-22T03:40:25.393Z,10.63
2023-05-22T03:42:54.089Z,9.97
2023-05-22T03:45:22.594Z,10.60
2023-05-22T03:47:51.629Z,10.50
2023-05-22T03:50:22.425Z,9.90
2023-05-22T03:52:50.754Z,10.47
2023-05-22T03:55:19.961Z,10.70
2023-05-22T03:57:48.601Z,9.90
2023-05-22T04:00:19.701Z,10.17
2023-05-22T04:02:52.077Z,10.07
2023-05-22T04:05:25.780Z,9.27
2023-05-22T04:07:55.687Z,9.90
2023-05-22T04:10:24.720Z,11.67
2023-05-22T04:12:53.761Z,11.33
2023-05-22T04:15:22.586Z,10.33
2023-05-22T04:17:54.019Z,10.83
2023-05-22T04:20:24.394Z,10.60
2023-05-22T04:22:54.912Z,10.60
2023-05-22T04:25:24.284Z,11.50
2023-05-22T04:27:55.869Z,10.87
2023-05-22T04:30:26.209Z,10.00
2023-05-22T04:32:56.623Z,11.60
2023-05-22T04:35:29.855Z,11.50
2023-05-22T04:37:58.637Z,11.23
2023-05-22T04:40:29.929Z,10.90
2023-05-22T04:43:00.098Z,10.23
2023-05-22T04:45:38.264Z,11.03
2023-05-22T04:48:08.396Z,9.17
2023-05-22T04:50:47.047Z,11.83
2023-05-22T04:53:19.380Z,10.73
2023-05-22T04:55:49.780Z,9.90
2023-05-22T04:58:22.421Z,10.73
2023-05-22T05:00:55.123Z,10.10
2023-05-22T05:03:24.275Z,10.93
2023-05-22T05:06:00.582Z,10.60
2023-05-22T05:08:29.128Z,10.43
2023-05-22T05:10:57.854Z,9.73
2023-05-22T05:13:27.520Z,9.87
2023-05-22T05:15:56.671Z,10.07
2023-05-22T05:18:25.799Z,9.57
2023-05-22T05:20:56.229Z,9.43
2023-05-22T05:23:25.585Z,9.93
2023-05-22T05:25:56.477Z,9.77
2023-05-22T05:28:26.284Z,10.00
2023-05-22T05:30:58.041Z,8.90
2023-05-22T05:33:46.509Z,7.70
2023-05-22T05:36:40.766Z,8.50
2023-05-22T05:39:09.858Z,8.13
2023-05-22T05:41:40.878Z,9.67
2023-05-22T05:44:11.859Z,8.67
2023-05-22T05:46:41.738Z,8.30
2023-05-22T05:49:13.760Z,8.20
2023-05-22T05:51:46.609Z,8.27
2023-05-22T05:54:17.824Z,8.67
2023-05-22T05:56:48.522Z,7.70
2023-05-22T05:59:18.033Z,8.60
2023-05-22T06:02:17.133Z,8.90
2023-05-22T06:04:48.865Z,8.23
2023-05-22T06:07:21.838Z,7.50
2023-05-22T06:09:54.191Z,8.33
2023-05-22T06:12:49.274Z,7.90
2023-05-22T06:15:18.912Z,8.03
2023-05-22T06:17:47.759Z,9.07
2023-05-22T06:20:17.197Z,8.30
2023-05-22T06:22:47.656Z,8.27
2023-05-22T06:25:16.745Z,8.47
2023-05-22T06:27:46.090Z,7.97
2023-05-22T06:30:22.442Z,8.50
2023-05-22T06:32:58.478Z,7.77
2023-05-22T06:35:27.493Z,8.50
2023-05-22T06:37:59.178Z,8.20
2023-05-22T06:40:28.864Z,8.27
2023-05-22T06:43:03.139Z,8.10
2023-05-22T06:45:55.121Z,8.43
2023-05-22T06:48:27.066Z,7.50
2023-05-22T06:51:06.995Z,7.30
2023-05-22T06:53:37.517Z,7.47
2023-05-22T06:56:10.200Z,7.97
2023-05-22T06:58:56.226Z,7.90
2023-05-22T07:01:33.593Z,7.60
2023-05-22T07:04:09.752Z,8.47
2023-05-22T07:06:49.007Z,7.37
2023-05-22T07:09:21.296Z,7.17
2023-05-22T07:11:51.318Z,7.60
2023-05-22T07:14:19.802Z,7.43
2023-05-22T07:16:48.959Z,9.00
2023-05-22T07:19:23.387Z,8.10
2023-05-22T07:21:52.352Z,7.70
2023-05-22T07:24:24.937Z,8.07
2023-05-22T07:26:54.512Z,9.13
2023-05-22T07:29:23.456Z,8.00
2023-05-22T07:31:55.063Z,8.73
2023-05-22T07:34:32.350Z,7.77
2023-05-22T07:37:01.566Z,7.70
2023-05-22T07:39:32.257Z,8.50
2023-05-22T07:42:02.017Z,8.40
2023-05-22T07:44:33.807Z,7.80
2023-05-22T07:47:02.189Z,8.27
2023-05-22T07:49:32.131Z,7.50
2023-05-22T07:52:01.540Z,8.13
2023-05-22T07:54:32.275Z,8.23
2023-05-22T07:57:03.377Z,8.77
2023-05-22T07:59:37.875Z,8.60
2023-05-22T08:02:08.914Z,8.20
2023-05-22T08:04:37.631Z,8.70
2023-05-22T08:07:06.682Z,7.83
2023-05-22T08:09:38.488Z,9.20
2023-05-22T08:12:09.735Z,9.07
2023-05-22T08:14:39.116Z,9.00
2023-05-22T08:17:07.726Z,9.33
2023-05-22T08:19:36.832Z,9.50
2023-05-22T08:22:05.402Z,9.10
2023-05-22T08:24:33.822Z,9.00
2023-05-22T08:27:04.558Z,8.63
2023-05-22T08:29:33.076Z,9.37
2023-05-22T08:32:05.149Z,8.73
2023-05-22T08:34:34.899Z,9.30
2023-05-22T08:37:05.089Z,9.27
2023-05-22T08:39:34.229Z,9.77
2023-05-22T08:42:04.627Z,9.30
2023-05-22T08:44:35.002Z,9.40
2023-05-22T08:47:04.600Z,10.30
2023-05-22T08:49:33.820Z,10.37
2023-05-22T08:52:09.247Z,9.57
2023-05-22T08:54:42.568Z,7.43
2023-05-22T08:57:13.673Z,9.00
2023-05-22T08:59:43.152Z,10.10
2023-05-22T09:02:17.218Z,9.40
2023-05-22T09:04:46.409Z,9.70
2023-05-22T09:07:15.439Z,9.83
2023-05-22T09:09:44.410Z,9.33
2023-05-22T09:12:15.471Z,9.37
2023-05-22T09:14:45.524Z,9.43
2023-05-22T09:17:17.833Z,10.13
2023-05-22T09:19:47.357Z,10.50
2023-05-22T09:22:17.318Z,10.47
2023-05-22T09:24:49.912Z,11.27
2023-05-22T09:27:24.657Z,9.70
2023-05-22T09:29:54.890Z,9.50
2023-05-22T09:32:23.952Z,10.10
2023-05-22T09:34:53.316Z,10.37
2023-05-22T09:37:24.700Z,11.53
2023-05-22T09:39:55.579Z,10.87
2023-05-22T09:42:27.510Z,9.33
2023-05-22T09:44:56.617Z,9.00
2023-05-22T09:47:25.639Z,10.03
2023-05-22T09:49:59.059Z,11.30
2023-05-22T09:52:30.049Z,9.23
2023-05-22T09:55:01.937Z,9.80
2023-05-22T09:57:35.089Z,10.50
2023-05-22T10:00:09.810Z,10.17
2023-05-22T10:02:44.247Z,10.13
2023-05-22T10:05:21.831Z,12.47
2023-05-22T10:07:52.138Z,11.50
2023-05-22T10:10:24.359Z,10.90
2023-05-22T10:12:58.868Z,9.13
2023-05-22T10:15:28.549Z,11.43
2023-05-22T10:17:58.075Z,11.83
2023-05-22T10:20:28.510Z,9.63
2023-05-22T10:22:58.418Z,10.00
2023-05-22T10:25:29.589Z,10.33
2023-05-22T10:28:03.699Z,10.77
2023-05-22T10:30:42.878Z,10.87
2023-05-22T10:33:44.514Z,11.90
2023-05-22T10:36:21.909Z,10.90
2023-05-22T10:39:07.551Z,10.70
2023-05-22T10:41:39.984Z,8.70
2023-05-22T10:44:10.705Z,10.60
2023-05-22T10:46:39.552Z,12.37
2023-05-22T10:49:08.889Z,11.80
2023-05-22T10:51:39.337Z,11.03
2023-05-22T10:54:08.738Z,11.83
2023-05-22T10:56:38.785Z,10.20
2023-05-22T10:59:10.431Z,11.30
2023-05-22T11:01:40.457Z,12.30
2023-05-22T11:04:19.221Z,11.50
2023-05-22T11:07:07.194Z,10.77
2023-05-22T11:09:42.979Z,11.17
2023-05-22T11:12:18.940Z,10.57
2023-05-22T11:15:07.669Z,12.50
2023-05-22T11:17:47.049Z,11.03
2023-05-22T11:20:23.138Z,11.17
2023-05-22T11:23:09.831Z,10.90
2023-05-22T11:25:42.701Z,12.10
2023-05-22T11:28:12.469Z,10.63
2023-05-22T11:30:44.913Z,10.30
2023-05-22T11:33:18.601Z,9.87
2023-05-22T11:35:57.553Z,11.33
2023-05-22T11:38:29.454Z,10.23
2023-05-22T11:40:59.825Z,11.00
2023-05-22T11:43:34.553Z,11.43
2023-05-22T11:46:07.999Z,11.90
2023-05-22T11:48:37.847Z,10.10
2023-05-22T11:51:07.042Z,12.50
2023-05-22T11:53:37.032Z,11.93
2023-05-22T11:56:07.179Z,12.07
2023-05-22T11:58:42.897Z,10.73
2023-05-22T12:01:14.077Z,11.13
2023-05-22T12:03:43.313Z,13.43
2023-05-22T12:06:13.438Z,10.97
2023-05-22T12:08:43.943Z,11.07
2023-05-22T12:11:14.046Z,10.90
2023-05-22T12:13:45.718Z,12.40
2023-05-22T12:16:23.177Z,11.67
2023-05-22T12:18:55.268Z,12.43
2023-05-22T12:21:24.046Z,12.00
2023-05-22T12:23:55.079Z,12.27
2023-05-22T12:26:23.798Z,10.77
2023-05-22T12:28:56.322Z,9.80
2023-05-22T12:31:26.868Z,9.50
2023-05-22T12:33:56.453Z,11.47
2023-05-22T12:36:35.098Z,11.77
2023-05-22T12:39:08.584Z,13.80
2023-05-22T12:41:36.960Z,14.70
2023-05-22T12:44:06.167Z,12.03
2023-05-22T12:46:39.218Z,11.90
2023-05-22T12:49:09.240Z,12.23
2023-05-22T12:51:40.658Z,12.47
2023-05-22T12:54:10.489Z,14.97
2023-05-22T12:56:39.565Z,12.40
2023-05-22T12:59:08.929Z,13.40
2023-05-22T13:01:39.044Z,11.50
2023-05-22T13:04:09.088Z,11.07
2023-05-22T13:06:39.920Z,9.87
2023-05-22T13:09:08.305Z,9.93
2023-05-22T13:11:37.741Z,9.43
2023-05-22T13:14:06.892Z,10.90
2023-05-22T13:16:36.159Z,10.50
2023-05-22T13:19:06.923Z,12.13
2023-05-22T13:21:35.986Z,9.50
2023-05-22T13:24:05.880Z,10.27
2023-05-22T13:26:35.007Z,8.73
2023-05-22T13:29:07.049Z,9.67
2023-05-22T13:31:38.282Z,9.30
2023-05-22T13:34:09.759Z,9.57
2023-05-22T13:36:38.686Z,8.83
2023-05-22T13:39:09.076Z,9.57
2023-05-22T13:41:38.434Z,9.67
2023-05-22T13:44:07.143Z,10.30
2023-05-22T13:46:36.707Z,8.17
2023-05-22T13:49:10.004Z,8.80
2023-05-22T13:51:39.247Z,8.30
2023-05-22T13:54:07.581Z,8.20
2023-05-22T13:56:36.147Z,8.03
2023-05-22T13:59:06.530Z,8.60
2023-05-22T14:01:36.746Z,7.77
2023-05-22T14:04:05.535Z,7.17
2023-05-22T14:06:36.359Z,7.77
2023-05-22T14:09:07.511Z,8.23
2023-05-22T14:11:37.398Z,8.70
2023-05-22T14:14:06.487Z,8.47
2023-05-22T14:16:36.166Z,8.53
2023-05-22T14:19:04.805Z,8.63
2023-05-22T14:21:34.903Z,8.20
2023-05-22T14:24:04.652Z,8.20
2023-05-22T14:26:33.525Z,9.50
2023-05-22T14:29:02.296Z,8.57
2023-05-22T14:31:31.302Z,7.77
2023-05-22T14:33:59.942Z,7.70
2023-05-22T14:36:28.777Z,8.00
2023-05-22T14:38:59.809Z,7.93
2023-05-22T14:41:28.581Z,8.10
2023-05-22T14:43:57.453Z,7.90
2023-05-22T14:46:26.617Z,7.87
2023-05-22T14:48:55.573Z,9.10
2023-05-22T14:51:24.194Z,8.50
2023-05-22T14:53:52.830Z,7.80
2023-05-22T14:56:23.496Z,8.27
2023-05-22T14:58:52.218Z,8.00
2023-05-22T15:01:21.240Z,8.47
2023-05-22T15:03:49.832Z,8.90
2023-05-22T15:06:18.406Z,7.40
2023-05-22T15:08:47.135Z,8.80
2023-05-22T15:11:15.895Z,9.73
2023-05-22T15:13:47.039Z,8.40
2023-05-22T15:16:16.342Z,9.40
2023-05-22T15:18:45.398Z,9.17
2023-05-22T15:21:14.126Z,8.40
2023-05-22T15:23:43.375Z,10.47
2023-05-22T15:26:12.565Z,9.67
2023-05-22T15:28:41.613Z,8.87
2023-05-22T15:31:13.157Z,8.77
2023-05-22T15:33:42.606Z,9.00
2023-05-22T15:36:11.877Z,9.20
2023-05-22T15:38:41.646Z,9.67
2023-05-22T15:41:10.434Z,9.23
2023-05-22T15:43:39.484Z,8.83
2023-05-22T15:46:08.791Z,6.30
2023-05-22T15:48:40.310Z,6.70
2023-05-22T15:51:10.127Z,6.30
2023-05-22T15:53:39.299Z,6.20
2023-05-22T15:56:08.967Z,6.10
2023-05-22T15:58:39.030Z,6.13
2023-05-22T16:01:08.844Z,6.60
2023-05-22T16:03:39.790Z,6.70
2023-05-22T16:06:09.741Z,5.60
2023-05-22T16:08:39.188Z,6.30
2023-05-22T16:11:08.704Z,6.37
2023-05-22T16:13:38.252Z,5.80
2023-05-22T16:16:07.692Z,6.60
2023-05-22T16:18:37.181Z,6.30
2023-05-22T16:21:08.195Z,6.30
2023-05-22T16:23:38.476Z,5.83
2023-05-22T16:26:07.697Z,5.43
2023-05-22T16:28:37.029Z,5.93
2023-05-22T16:31:07.901Z,5.67
2023-05-22T16:33:38.073Z,5.33
2023-05-22T16:36:09.778Z,5.47
2023-05-22T16:38:40.295Z,5.30
2023-05-22T16:41:10.196Z,5.63
2023-05-22T16:43:40.218Z,5.77
2023-05-22T16:46:09.510Z,6.03
2023-05-22T16:48:38.422Z,5.97
2023-05-22T16:51:10.653Z,6.07
2023-05-22T16:53:39.945Z,5.20
2023-05-22T16:56:09.507Z,5.90
2023-05-22T16:58:38.883Z,5.60
2023-05-22T17:01:07.871Z,6.40
2023-05-22T17:03:37.204Z,5.50
2023-05-22T17:06:09.046Z,5.27
2023-05-22T17:08:39.827Z,5.23
2023-05-22T17:11:08.535Z,5.37
2023-05-22T17:13:37.956Z,5.30
2023-05-22T17:16:07.587Z,5.47
2023-05-22T17:18:36.898Z,6.10
2023-05-22T17:21:09.203Z,5.80
2023-05-22T17:23:40.353Z,5.00
2023-05-22T17:26:09.970Z,5.30
2023-05-22T17:28:39.059Z,5.40
2023-05-22T17:31:08.926Z,5.90
2023-05-22T17:33:39.653Z,6.23
2023-05-22T17:36:08.540Z,5.90
2023-05-22T17:38:38.143Z,5.73
2023-05-22T17:41:09.921Z,5.73
2023-05-22T17:43:39.598Z,5.73
2023-05-22T17:46:09.684Z,5.90
2023-05-22T17:48:47.874Z,5.57
2023-05-22T17:51:17.653Z,5.60
2023-05-22T17:53:47.305Z,6.33
2023-05-22T17:56:17.780Z,6.60
2023-05-22T17:58:46.571Z,6.30
2023-05-22T18:01:17.305Z,6.57
2023-05-22T18:03:47.105Z,6.57
2023-05-22T18:06:16.589Z,5.93
2023-05-22T18:08:45.682Z,5.40
2023-05-22T18:11:14.834Z,5.80
2023-05-22T18:13:45.200Z,6.23
2023-05-22T18:16:14.225Z,5.93
2023-05-22T18:18:43.064Z,6.10
2023-05-22T18:21:11.967Z,6.60
2023-05-22T18:23:40.940Z,6.70
2023-05-22T18:26:10.053Z,6.03
2023-05-22T18:28:42.024Z,6.40
2023-05-22T18:31:12.714Z,6.20
2023-05-22T18:33:44.817Z,6.33
2023-05-22T18:36:14.888Z,6.63
2023-05-22T18:38:44.080Z,5.80
2023-05-22T18:41:19.224Z,6.30
2023-05-22T18:43:49.844Z,6.47
2023-05-22T18:46:21.796Z,7.00
2023-05-22T18:48:50.500Z,6.17
2023-05-22T18:51:20.319Z,6.93
2023-05-22T18:53:52.032Z,6.37
2023-05-22T18:56:20.661Z,6.80
2023-05-22T18:58:49.619Z,6.47
2023-05-22T19:01:20.075Z,6.67
2023-05-22T19:03:49.606Z,6.67
2023-05-22T19:06:20.232Z,5.53
2023-05-22T19:08:49.696Z,6.50
2023-05-22T19:11:18.389Z,5.97
2023-05-22T19:13:47.536Z,5.97
2023-05-22T19:16:16.603Z,5.97
2023-05-22T19:18:48.492Z,5.90
2023-05-22T19:21:17.314Z,6.70
2023-05-22T19:23:46.859Z,6.50
2023-05-22T19:26:15.588Z,5.80
2023-05-22T19:28:44.826Z,6.20
2023-05-22T19:31:13.578Z,5.57
2023-05-22T19:33:42.721Z,5.80
2023-05-22T19:36:13.511Z,5.70
2023-05-22T19:38:42.537Z,6.87
2023-05-22T19:41:14.722Z,6.10
2023-05-22T19:43:43.976Z,6.03
2023-05-22T19:46:12.854Z,5.93
2023-05-22T19:48:41.610Z,5.80
2023-05-22T19:51:11.020Z,6.40
2023-05-22T19:53:42.658Z,6.57
2023-05-22T19:56:11.858Z,6.93
2023-05-22T19:58:43.645Z,6.57
2023-05-22T20:01:13.449Z,7.33
2023-05-22T20:03:43.033Z,6.67
2023-05-22T20:06:13.399Z,6.70
2023-05-22T20:08:44.633Z,6.47
2023-05-22T20:11:13.274Z,7.57
2023-05-22T20:13:51.073Z,7.27
2023-05-22T20:16:20.216Z,6.50
2023-05-22T20:18:49.333Z,7.70
2023-05-22T20:21:18.979Z,7.63
2023-05-22T20:23:50.179Z,7.50
2023-05-22T20:26:19.936Z,8.30
2023-05-22T20:28:50.076Z,7.40
2023-05-22T20:31:19.749Z,7.60
2023-05-22T20:33:49.060Z,7.37
2023-05-22T20:36:18.840Z,7.40
2023-05-22T20:38:50.233Z,7.50
2023-05-22T20:41:19.653Z,7.93
2023-05-22T20:43:48.610Z,8.87
2023-05-22T20:46:17.503Z,8.50
2023-05-22T20:48:48.323Z,8.40
2023-05-22T20:51:18.781Z,9.10
2023-05-22T20:53:49.415Z,9.40
2023-05-22T20:56:18.679Z,7.20
2023-05-22T20:58:47.348Z,8.67
2023-05-22T21:01:16.166Z,7.70
2023-05-22T21:03:45.376Z,7.70
2023-05-22T21:06:14.489Z,8.27
2023-05-22T21:08:43.629Z,8.30
2023-05-22T21:11:13.872Z,7.67
2023-05-22T21:13:42.312Z,7.67
2023-05-22T21:16:13.842Z,7.97
2023-05-22T21:18:44.155Z,7.07
2023-05-22T21:21:14.129Z,8.73
2023-05-22T21:23:43.561Z,8.50
2023-05-22T21:26:14.027Z,8.70
2023-05-22T21:28:44.765Z,8.23
2023-05-22T21:31:13.416Z,7.73
2023-05-22T21:33:42.482Z,8.50
2023-05-22T21:36:11.575Z,8.50
2023-05-22T21:38:40.270Z,9.37
2023-05-22T21:41:09.062Z,8.23
2023-05-22T21:43:39.280Z,8.30
2023-05-22T21:46:08.173Z,7.97
2023-05-22T21:48:37.567Z,8.87
2023-05-22T21:51:07.210Z,8.57
2023-05-22T21:53:36.413Z,8.50
2023-05-22T21:56:05.364Z,9.07
2023-05-22T21:58:33.966Z,8.80
2023-05-22T22:01:04.575Z,8.33
2023-05-22T22:03:33.179Z,8.27
2023-05-22T22:06:02.090Z,9.00
2023-05-22T22:08:30.644Z,8.30
2023-05-22T22:10:59.747Z,9.07
2023-05-22T22:13:28.652Z,10.40
2023-05-22T22:15:59.613Z,9.13
2023-05-22T22:18:33.026Z,8.77
2023-05-22T22:21:02.568Z,8.63
2023-05-22T22:23:32.085Z,7.70
2023-05-22T22:26:00.461Z,8.80
2023-05-22T22:28:29.263Z,8.40
2023-05-22T22:30:57.583Z,9.00
2023-05-22T22:33:25.956Z,7.60
2023-05-22T22:35:56.464Z,8.77
2023-05-22T22:38:25.114Z,8.33
2023-05-22T22:40:54.130Z,8.90
2023-05-22T22:43:22.899Z,8.90
2023-05-22T22:45:51.412Z,8.20
2023-05-22T22:48:22.555Z,8.37
2023-05-22T22:50:52.787Z,8.53
2023-05-22T22:53:23.338Z,9.00
2023-05-22T22:55:57.541Z,8.00
2023-05-22T22:58:26.188Z,8.27
2023-05-22T23:00:55.261Z,8.07
2023-05-22T23:03:24.362Z,9.10
2023-05-22T23:05:52.964Z,8.30
2023-05-22T23:08:24.270Z,8.77
2023-05-22T23:10:54.598Z,8.10
2023-05-22T23:13:23.218Z,8.83
2023-05-22T23:15:52.241Z,8.20
2023-05-22T23:18:20.940Z,8.30
2023-05-22T23:20:49.652Z,9.17
2023-05-22T23:23:18.146Z,8.60
2023-05-22T23:25:48.480Z,8.63
2023-05-22T23:28:17.839Z,9.27
2023-05-22T23:30:46.867Z,8.20
2023-05-22T23:33:15.392Z,8.50
2023-05-22T23:35:44.048Z,8.80
2023-05-22T23:38:12.532Z,8.83
2023-05-22T23:40:41.321Z,9.63
2023-05-22T23:43:11.683Z,8.57
2023-05-22T23:45:40.940Z,8.53
2023-05-22T23:48:10.035Z,9.00
2023-05-22T23:50:38.694Z,9.00
2023-05-22T23:53:07.659Z,8.90
2023-05-22T23:55:36.281Z,8.43
2023-05-22T23:58:05.410Z,8.47
